Time;durP1;ratioP1;P1;durP2;ratioP2;P2;SDS_P1;SDS_P2;PMS_P1;PMS_P2;Temp;Humidity;BMP_temperature;BMP_pressure;BME280_temperature;BME280_humidity;BME280_pressure;Samples;Min_cycle;Max_cycle;Signal;HPM_P1;HPM_P2
2022/05/29 00:00:35;;;;;;;8.75;3.53;;;;;;;;;;10365925;28;20506;-76
2022/05/29 00:05:40;;;;;;;7.05;3.30;;;;;;;;;;10368524;28;20073;-77
2022/05/29 00:10:43;;;;;;;7.03;3.40;;;;;;;;;;10365827;28;20879;-79
2022/05/29 00:15:46;;;;;;;7.18;3.53;;;;;;;;;;10363968;28;20065;-77
2022/05/29 00:20:51;;;;;;;7.78;3.80;;;;;;;;;;10366714;28;20514;-78
2022/05/29 00:25:55;;;;;;;6.68;3.67;;;;;;;;;;10343671;28;20075;-78
2022/05/29 00:30:59;;;;;;;7.22;3.70;;;;;;;;;;10354605;28;20038;-78
2022/05/29 00:36:03;;;;;;;8.70;3.70;;;;;;;;;;10363379;28;20049;-76
2022/05/29 00:41:13;;;;;;;8.25;3.63;;;;;;;;;;10340034;28;20065;-78
2022/05/29 00:46:16;;;;;;;14.20;4.32;;;;;;;;;;10345922;28;20483;-78
2022/05/29 00:51:23;;;;;;;9.90;4.10;;;;;;;;;;10360998;28;20046;-77
2022/05/29 00:56:26;;;;;;;10.50;3.60;;;;;;;;;;10360547;28;20049;-78
2022/05/29 01:01:29;;;;;;;10.65;3.90;;;;;;;;;;10335605;28;20096;-78
2022/05/29 01:06:35;;;;;;;7.10;3.67;;;;;;;;;;10369152;28;20053;-75
2022/05/29 01:11:45;;;;;;;10.43;3.78;;;;;;;;;;10360291;28;20443;-77
2022/05/29 01:16:56;;;;;;;8.13;3.50;;;;;;;;;;10343296;28;20042;-79
2022/05/29 01:22:11;;;;;;;11.90;3.78;;;;;;;;;;10361029;28;20116;-77
2022/05/29 01:27:46;;;;;;;7.95;3.60;;;;;;;;;;10343576;28;20041;-77
2022/05/29 01:32:56;;;;;;;11.32;3.85;;;;;;;;;;10342622;28;20148;-78
2022/05/29 01:38:01;;;;;;;7.30;3.47;;;;;;;;;;10362799;28;20038;-78
2022/05/29 01:43:06;;;;;;;7.88;3.38;;;;;;;;;;10363274;28;20125;-77
2022/05/29 01:48:15;;;;;;;10.52;3.72;;;;;;;;;;10351439;28;20411;-74
2022/05/29 01:53:21;;;;;;;8.82;3.58;;;;;;;;;;10339565;28;20073;-77
2022/05/29 01:58:26;;;;;;;5.85;4.00;;;;;;;;;;10342386;28;20064;-77
2022/05/29 02:03:34;;;;;;;10.13;4.10;;;;;;;;;;10342124;28;20121;-76
2022/05/29 02:08:46;;;;;;;8.52;4.20;;;;;;;;;;10367436;28;20138;-76
2022/05/29 02:13:50;;;;;;;10.13;3.70;;;;;;;;;;10340443;28;20490;-77
2022/05/29 02:18:58;;;;;;;7.57;3.63;;;;;;;;;;10358684;28;20034;-77
2022/05/29 02:24:08;;;;;;;8.23;3.83;;;;;;;;;;10336386;28;20298;-78
2022/05/29 02:29:12;;;;;;;9.80;4.18;;;;;;;;;;10336026;28;20061;-77
2022/05/29 02:34:19;;;;;;;11.63;3.58;;;;;;;;;;10353692;28;20029;-77
2022/05/29 02:39:25;;;;;;;9.35;3.97;;;;;;;;;;10357137;28;20062;-77
2022/05/29 02:44:36;;;;;;;9.68;4.25;;;;;;;;;;10353744;28;20062;-79
2022/05/29 02:49:43;;;;;;;8.75;4.07;;;;;;;;;;10352940;28;20042;-79
2022/05/29 02:54:46;;;;;;;8.20;4.10;;;;;;;;;;10344678;28;20046;-77
2022/05/29 02:59:57;;;;;;;8.38;3.80;;;;;;;;;;10354918;28;20080;-76
2022/05/29 03:05:07;;;;;;;10.30;4.50;;;;;;;;;;10338968;28;20507;-77
2022/05/29 03:10:13;;;;;;;8.90;4.38;;;;;;;;;;10355483;28;20109;-77
2022/05/29 03:15:21;;;;;;;9.18;3.83;;;;;;;;;;10358428;28;20042;-79
2022/05/29 03:20:33;;;;;;;9.82;4.10;;;;;;;;;;10360305;28;20038;-78
2022/05/29 03:25:38;;;;;;;11.23;4.38;;;;;;;;;;10336073;28;20069;-78
2022/05/29 03:30:45;;;;;;;9.57;4.38;;;;;;;;;;10340384;28;20076;-74
2022/05/29 03:36:04;;;;;;;11.52;4.43;;;;;;;;;;10354251;28;20072;-78
2022/05/29 03:41:11;;;;;;;10.48;4.20;;;;;;;;;;10339100;28;20049;-76
2022/05/29 03:46:14;;;;;;;12.75;4.03;;;;;;;;;;10355672;28;20044;-81
2022/05/29 03:51:19;;;;;;;12.43;4.43;;;;;;;;;;10355239;28;20407;-79
2022/05/29 03:56:22;;;;;;;8.10;3.53;;;;;;;;;;10355900;28;20028;-78
2022/05/29 04:01:28;;;;;;;9.70;4.13;;;;;;;;;;10362516;28;20144;-77
2022/05/29 04:06:34;;;;;;;9.20;4.70;;;;;;;;;;10351773;28;20076;-78
2022/05/29 04:17:06;;;;;;;7.38;3.97;;;;;;;;;;10363245;28;20038;-78
2022/05/29 04:22:11;;;;;;;9.68;4.35;;;;;;;;;;10364190;28;20132;-78
2022/05/29 04:27:15;;;;;;;9.82;4.10;;;;;;;;;;10365090;28;20089;-74
2022/05/29 04:37:39;;;;;;;8.82;4.13;;;;;;;;;;10365802;28;20133;-77
2022/05/29 04:42:42;;;;;;;10.00;4.28;;;;;;;;;;10359134;28;20057;-76
2022/05/29 04:47:47;;;;;;;8.27;3.85;;;;;;;;;;10343097;28;20038;-78
2022/05/29 04:52:51;;;;;;;7.97;4.50;;;;;;;;;;10341005;28;20077;-79
2022/05/29 04:57:54;;;;;;;;;;;;;;;;;;10363154;28;20042;-79
2022/05/29 05:02:57;;;;;;;9.50;4.38;;;;;;;;;;10359155;28;20389;-80
2022/05/29 05:08:01;;;;;;;9.18;4.07;;;;;;;;;;10345028;28;20541;-79
2022/05/29 05:13:03;;;;;;;;;;;;;;;;;;10363681;28;20076;-78
2022/05/29 05:18:10;;;;;;;9.23;3.85;;;;;;;;;;10359889;28;20436;-77
2022/05/29 05:23:14;;;;;;;9.05;3.97;;;;;;;;;;10340064;28;20041;-77
2022/05/29 05:28:18;;;;;;;7.88;3.45;;;;;;;;;;10342540;28;20038;-78
2022/05/29 05:33:21;;;;;;;6.55;3.20;;;;;;;;;;10343138;28;20038;-79
2022/05/29 05:38:26;;;;;;;4.95;2.88;;;;;;;;;;10365583;28;20195;-78
2022/05/29 05:43:31;;;;;;;6.03;2.80;;;;;;;;;;10358106;28;20092;-78
2022/05/29 05:48:34;;;;;;;6.13;2.63;;;;;;;;;;10346453;28;20038;-77
2022/05/29 05:53:41;;;;;;;7.20;2.83;;;;;;;;;;10343237;28;20045;-79
2022/05/29 05:58:45;;;;;;;5.38;2.45;;;;;;;;;;10371633;28;20033;-77
2022/05/29 06:03:47;;;;;;;3.50;2.55;;;;;;;;;;10356837;28;20125;-78
2022/05/29 06:08:52;;;;;;;4.13;2.40;;;;;;;;;;10345714;28;20157;-78
2022/05/29 06:13:55;;;;;;;5.85;2.30;;;;;;;;;;10353490;28;20076;-78
2022/05/29 06:18:58;;;;;;;3.97;2.42;;;;;;;;;;10346457;28;20132;-79
2022/05/29 06:24:02;;;;;;;4.15;2.80;;;;;;;;;;10342839;28;20507;-76
2022/05/29 06:29:06;;;;;;;4.32;2.55;;;;;;;;;;10342680;28;20053;-75
2022/05/29 06:34:08;;;;;;;5.85;3.10;;;;;;;;;;10352455;28;20362;-77
2022/05/29 06:39:13;;;;;;;5.90;2.67;;;;;;;;;;10342690;28;20073;-79
2022/05/29 06:44:15;;;;;;;10.93;4.45;;;;;;;;;;10344510;28;20061;-77
2022/05/29 06:49:18;;;;;;;4.13;2.63;;;;;;;;;;10338259;28;20346;-77
2022/05/29 06:54:22;;;;;;;5.00;2.63;;;;;;;;;;10339976;28;20121;-77
2022/05/29 06:59:25;;;;;;;4.32;2.38;;;;;;;;;;10359781;28;20043;-80
2022/05/29 07:09:49;;;;;;;5.68;2.65;;;;;;;;;;10338791;28;20069;-78
2022/05/29 07:14:54;;;;;;;5.60;2.53;;;;;;;;;;10358173;28;20065;-78
2022/05/29 07:19:57;;;;;;;4.07;2.72;;;;;;;;;;10360265;28;20088;-83
2022/05/29 07:25:01;;;;;;;6.70;2.60;;;;;;;;;;10340098;28;20124;-76
2022/05/29 07:30:05;;;;;;;4.47;2.58;;;;;;;;;;10354596;28;20517;-78
2022/05/29 07:35:09;;;;;;;4.57;2.80;;;;;;;;;;10353519;28;20129;-78
2022/05/29 07:40:13;;;;;;;6.95;2.95;;;;;;;;;;10362866;28;20037;-78
2022/05/29 07:45:16;;;;;;;5.13;2.80;;;;;;;;;;10366704;28;20117;-78
2022/05/29 07:50:20;;;;;;;4.00;2.57;;;;;;;;;;10346692;28;20117;-76
2022/05/29 07:55:25;;;;;;;8.95;3.20;;;;;;;;;;10365741;28;20046;-78
2022/05/29 08:00:28;;;;;;;5.47;2.70;;;;;;;;;;10350006;28;20136;-78
2022/05/29 08:05:33;;;;;;;4.03;2.90;;;;;;;;;;10363330;28;20034;-77
2022/05/29 08:10:38;;;;;;;5.38;2.38;;;;;;;;;;10360572;28;20347;-79
2022/05/29 08:15:41;;;;;;;3.03;2.28;;;;;;;;;;10345486;28;20073;-78
2022/05/29 08:20:44;;;;;;;4.60;2.58;;;;;;;;;;10364900;28;20038;-78
2022/05/29 08:31:12;;;;;;;6.10;3.08;;;;;;;;;;10362883;28;20520;-78
2022/05/29 08:36:19;;;;;;;5.53;3.00;;;;;;;;;;10363961;28;20549;-76
2022/05/29 08:41:29;;;;;;;3.17;2.50;;;;;;;;;;10339131;28;20038;-80
2022/05/29 08:46:35;;;;;;;6.38;2.50;;;;;;;;;;10368005;28;20145;-81
2022/05/29 08:51:53;;;;;;;3.30;2.63;;;;;;;;;;10357037;28;20073;-77
2022/05/29 08:57:04;;;;;;;4.70;2.42;;;;;;;;;;10340303;28;20034;-78
2022/05/29 09:02:12;;;;;;;3.90;2.20;;;;;;;;;;10371880;28;20042;-80
2022/05/29 09:07:17;;;;;;;4.30;2.47;;;;;;;;;;10349828;28;20061;-81
2022/05/29 09:12:24;;;;;;;5.05;2.25;;;;;;;;;;10342895;28;20847;-77
2022/05/29 09:17:31;;;;;;;5.53;2.65;;;;;;;;;;10365756;28;20141;-78
2022/05/29 09:22:37;;;;;;;4.28;2.40;;;;;;;;;;10342412;28;20092;-82
2022/05/29 09:27:44;;;;;;;5.20;2.25;;;;;;;;;;10344580;28;20565;-78
2022/05/29 09:32:49;;;;;;;5.78;2.95;;;;;;;;;;10332354;28;20069;-78
2022/05/29 09:37:56;;;;;;;4.80;2.60;;;;;;;;;;10361181;28;20037;-80
2022/05/29 09:43:13;;;;;;;4.60;2.45;;;;;;;;;;10348830;28;20076;-83
2022/05/29 09:53:56;;;;;;;7.13;2.47;;;;;;;;;;10358365;28;20082;-73
2022/05/29 09:59:04;;;;;;;4.80;2.30;;;;;;;;;;10355889;28;20050;-71
2022/05/29 10:04:11;;;;;;;4.43;2.20;;;;;;;;;;10356767;28;20135;-72
2022/05/29 10:09:16;;;;;;;5.22;2.50;;;;;;;;;;10353549;28;20038;-74
2022/05/29 10:14:36;;;;;;;7.40;3.70;;;;;;;;;;10359889;28;20072;-73
2022/05/29 10:19:39;;;;;;;3.35;2.28;;;;;;;;;;10340922;28;20133;-72
2022/05/29 10:24:43;;;;;;;6.05;2.30;;;;;;;;;;10358459;28;20046;-74
2022/05/29 10:29:46;;;;;;;;;;;;;;;;;;10347810;28;20065;-74
2022/05/29 10:34:50;;;;;;;7.43;2.60;;;;;;;;;;10341722;28;20020;-71
2022/05/29 10:40:10;;;;;;;5.80;2.65;;;;;;;;;;10357551;28;20034;-71
2022/05/29 10:45:21;;;;;;;5.78;2.42;;;;;;;;;;10335878;28;20038;-72
2022/05/29 10:50:26;;;;;;;;;;;;;;;;;;10362439;28;20034;-75
2022/05/29 10:55:35;;;;;;;10.43;3.47;;;;;;;;;;10341122;28;20024;-74
2022/05/29 11:00:44;;;;;;;4.93;2.95;;;;;;;;;;10345668;28;20108;-71
2022/05/29 11:06:02;;;;;;;6.20;3.05;;;;;;;;;;10359239;28;20038;-72
2022/05/29 11:11:17;;;;;;;7.20;3.08;;;;;;;;;;10344288;28;20104;-71
2022/05/29 11:16:25;;;;;;;2.10;1.60;;;;;;;;;;10345943;28;20045;-73
2022/05/29 11:21:34;;;;;;;2.63;1.40;;;;;;;;;;10352141;28;20045;-73
2022/05/29 11:26:43;;;;;;;2.88;1.50;;;;;;;;;;10369962;28;20069;-73
2022/05/29 11:31:55;;;;;;;5.57;2.28;;;;;;;;;;10347266;28;20098;-72
2022/05/29 11:37:05;;;;;;;4.40;2.17;;;;;;;;;;10351872;28;20038;-72
2022/05/29 11:42:14;;;;;;;4.10;1.35;;;;;;;;;;10349265;28;20038;-72
2022/05/29 11:52:52;;;;;;;6.57;2.50;;;;;;;;;;10303990;28;20053;-74
2022/05/29 11:57:57;;;;;;;4.03;2.40;;;;;;;;;;10342711;28;20038;-73
2022/05/29 12:03:04;;;;;;;2.70;0.93;;;;;;;;;;10345101;28;20414;-73
2022/05/29 12:08:12;;;;;;;6.03;2.67;;;;;;;;;;10364087;28;20037;-74
2022/05/29 12:13:20;;;;;;;5.70;2.80;;;;;;;;;;10357731;28;20046;-77
2022/05/29 12:18:26;;;;;;;4.32;1.98;;;;;;;;;;10365021;28;20037;-79
2022/05/29 12:23:32;;;;;;;5.20;2.20;;;;;;;;;;10374950;28;20116;-79
2022/05/29 12:28:44;;;;;;;2.92;1.75;;;;;;;;;;10376866;28;20040;-79
2022/05/29 12:33:48;;;;;;;3.88;2.40;;;;;;;;;;10372759;28;20303;-79
2022/05/29 12:39:11;;;;;;;4.00;2.05;;;;;;;;;;10358052;28;20042;-80
2022/05/29 12:44:23;;;;;;;2.90;1.93;;;;;;;;;;10373592;28;20061;-79
2022/05/29 12:49:45;;;;;;;3.30;2.22;;;;;;;;;;10377551;28;20559;-78
2022/05/29 12:54:51;;;;;;;4.60;2.00;;;;;;;;;;10355027;28;20072;-78
2022/05/29 13:00:02;;;;;;;3.35;1.63;;;;;;;;;;10374314;28;20037;-79
2022/05/29 13:05:23;;;;;;;4.20;1.98;;;;;;;;;;10373466;28;20038;-76
2022/05/29 13:10:27;;;;;;;2.95;1.88;;;;;;;;;;10345111;28;20479;-79
2022/05/29 13:15:29;;;;;;;;;;;;;;;;;;10369663;28;20104;-78
2022/05/29 13:20:55;;;;;;;2.42;1.52;;;;;;;;;;10373319;28;19921;-78
2022/05/29 13:26:16;;;;;;;2.45;1.40;;;;;;;;;;10369167;28;20076;-78
2022/05/29 13:31:19;;;;;;;4.72;2.72;;;;;;;;;;10356843;28;20226;-78
2022/05/29 13:36:43;;;;;;;0.90;0.82;;;;;;;;;;10372405;28;20188;-78
2022/05/29 13:42:00;;;;;;;2.00;1.30;;;;;;;;;;10372517;28;20099;-77
2022/05/29 13:47:22;;;;;;;1.58;1.30;;;;;;;;;;10371524;28;20046;-79
2022/05/29 13:52:27;;;;;;;2.42;1.27;;;;;;;;;;10357528;28;20056;-80
2022/05/29 14:08:30;;;;;;;2.05;1.42;;;;;;;;;;10355920;28;20020;-78
2022/05/29 14:13:36;;;;;;;3.17;1.20;;;;;;;;;;10359921;28;20080;-76
2022/05/29 14:18:44;;;;;;;4.60;2.60;;;;;;;;;;10353120;28;20108;-77
2022/05/29 14:23:52;;;;;;;1.73;1.30;;;;;;;;;;10343961;28;20438;-80
2022/05/29 14:29:02;;;;;;;2.70;1.42;;;;;;;;;;10362532;28;20057;-78
2022/05/29 14:34:12;;;;;;;3.65;1.17;;;;;;;;;;10336089;28;20421;-81
2022/05/29 14:39:30;;;;;;;1.65;1.20;;;;;;;;;;10341206;28;20125;-81
2022/05/29 14:44:40;;;;;;;9.52;2.30;;;;;;;;;;10368991;28;20097;-78
2022/05/29 14:49:46;;;;;;;3.03;1.27;;;;;;;;;;10359266;28;20047;-80
2022/05/29 14:54:50;;;;;;;3.25;1.40;;;;;;;;;;10344056;28;20045;-80
2022/05/29 14:59:56;;;;;;;1.92;1.45;;;;;;;;;;10336200;28;20146;-80
2022/05/29 15:05:00;;;;;;;3.80;1.42;;;;;;;;;;10335043;28;20133;-78
2022/05/29 15:15:34;;;;;;;1.90;1.40;;;;;;;;;;10341543;28;20494;-81
2022/05/29 15:26:07;;;;;;;2.95;1.73;;;;;;;;;;10355616;28;20041;-80
2022/05/29 15:31:12;;;;;;;3.28;1.67;;;;;;;;;;10352241;28;20042;-77
2022/05/29 15:36:22;;;;;;;4.55;2.15;;;;;;;;;;10360785;28;20038;-79
2022/05/29 15:41:34;;;;;;;3.38;1.88;;;;;;;;;;10340421;28;20066;-80
2022/05/29 15:46:45;;;;;;;3.22;1.60;;;;;;;;;;10343852;28;20045;-79
2022/05/29 15:51:53;;;;;;;1.70;1.25;;;;;;;;;;10356407;28;20436;-79
2022/05/29 15:57:00;;;;;;;2.00;1.45;;;;;;;;;;10365578;28;20042;-79
2022/05/29 16:02:06;;;;;;;4.18;1.30;;;;;;;;;;10366755;28;20034;-79
2022/05/29 16:07:11;;;;;;;3.78;1.67;;;;;;;;;;10368712;28;20034;-79
2022/05/29 16:12:16;;;;;;;3.60;2.00;;;;;;;;;;10365333;28;20041;-80
2022/05/29 16:17:29;;;;;;;3.55;1.80;;;;;;;;;;10352438;28;20045;-80
2022/05/29 16:22:37;;;;;;;2.53;1.80;;;;;;;;;;10363024;28;20046;-78
2022/05/29 16:27:47;;;;;;;1.67;1.38;;;;;;;;;;10367491;28;20033;-79
2022/05/29 16:32:53;;;;;;;2.35;1.42;;;;;;;;;;10344362;28;20050;-77
2022/05/29 16:48:49;;;;;;;1.92;1.30;;;;;;;;;;10366489;28;20084;-78
2022/05/29 16:53:53;;;;;;;2.20;1.30;;;;;;;;;;10363558;28;20057;-79
2022/05/29 16:58:58;;;;;;;2.92;1.63;;;;;;;;;;10364282;28;20025;-79
2022/05/29 17:04:12;;;;;;;2.35;0.95;;;;;;;;;;10364023;28;20040;-79
2022/05/29 17:09:26;;;;;;;1.85;1.10;;;;;;;;;;10364704;28;20074;-80
2022/05/29 17:14:42;;;;;;;2.17;0.95;;;;;;;;;;10358960;28;20049;-79
2022/05/29 17:19:49;;;;;;;1.33;1.02;;;;;;;;;;10349446;28;20050;-82
2022/05/29 17:25:05;;;;;;;1.80;0.90;;;;;;;;;;10359759;28;20049;-80
2022/05/29 17:30:11;;;;;;;3.03;0.90;;;;;;;;;;10358766;28;20451;-81
2022/05/29 17:35:17;;;;;;;1.15;1.05;;;;;;;;;;10365697;28;20041;-79
2022/05/29 17:40:41;;;;;;;2.80;1.30;;;;;;;;;;10364095;28;20576;-80
2022/05/29 17:45:45;;;;;;;1.58;0.95;;;;;;;;;;10339959;28;20038;-78
2022/05/29 17:50:52;;;;;;;1.70;1.02;;;;;;;;;;10338804;28;20030;-79
2022/05/29 17:55:57;;;;;;;2.22;1.15;;;;;;;;;;10343215;28;20128;-78
2022/05/29 18:01:00;;;;;;;2.58;1.38;;;;;;;;;;10339341;28;20133;-79
2022/05/29 18:06:05;;;;;;;1.00;1.00;;;;;;;;;;10360199;28;20085;-79
2022/05/29 18:11:09;;;;;;;2.03;1.33;;;;;;;;;;10363048;28;20045;-78
2022/05/29 18:16:12;;;;;;;2.42;1.60;;;;;;;;;;10358325;28;20129;-78
2022/05/29 18:21:17;;;;;;;1.58;1.00;;;;;;;;;;10355458;28;20068;-81
2022/05/29 18:26:25;;;;;;;2.20;1.40;;;;;;;;;;10359545;28;20034;-80
2022/05/29 18:31:29;;;;;;;5.78;2.38;;;;;;;;;;10342982;28;20050;-79
2022/05/29 18:36:33;;;;;;;3.37;1.77;;;;;;;;;;10361273;28;20141;-79
2022/05/29 18:41:36;;;;;;;;;;;;;;;;;;10360351;28;20066;-77
2022/05/29 18:46:40;;;;;;;1.35;0.90;;;;;;;;;;10360397;28;19922;-80
2022/05/29 18:51:44;;;;;;;1.95;1.33;;;;;;;;;;10358082;28;20060;-79
2022/05/29 18:56:48;;;;;;;3.40;1.75;;;;;;;;;;10357076;28;20101;-79
2022/05/29 19:01:54;;;;;;;2.17;1.00;;;;;;;;;;10339998;28;20093;-78
2022/05/29 19:06:59;;;;;;;4.55;1.60;;;;;;;;;;10359039;28;20078;-79
2022/05/29 19:12:05;;;;;;;1.58;0.82;;;;;;;;;;10358299;28;20387;-79
2022/05/29 19:18:09;;;;;;;3.43;1.50;;;;;;;;;;10354354;28;20065;-78
2022/05/29 19:22:32;;;;;;;2.45;1.25;;;;;;;;;;10341696;28;20069;-79
2022/05/29 19:27:34;;;;;;;;;;;;;;;;;;10365122;28;20054;-77
2022/05/29 19:32:38;;;;;;;1.02;0.82;;;;;;;;;;10350733;28;19921;-77
2022/05/29 19:37:43;;;;;;;3.53;1.50;;;;;;;;;;10348866;28;20481;-76
2022/05/29 19:42:46;;;;;;;2.65;1.30;;;;;;;;;;10342836;28;20670;-77
2022/05/29 19:47:50;;;;;;;2.90;1.67;;;;;;;;;;10367329;28;20038;-77
2022/05/29 19:52:55;;;;;;;2.30;1.40;;;;;;;;;;10364559;28;20046;-76
2022/05/29 19:57:58;;;;;;;2.40;1.40;;;;;;;;;;10343965;28;20041;-76
2022/05/29 20:03:00;;;;;;;3.20;1.90;;;;;;;;;;10362094;28;20124;-77
2022/05/29 20:08:06;;;;;;;2.60;1.40;;;;;;;;;;10368492;28;20053;-77
2022/05/29 20:13:09;;;;;;;3.10;1.48;;;;;;;;;;10361125;28;20236;-78
2022/05/29 20:18:12;;;;;;;1.48;0.65;;;;;;;;;;10366125;28;20068;-78
2022/05/29 20:23:17;;;;;;;0.95;0.50;;;;;;;;;;10365228;28;20033;-76
2022/05/29 20:28:21;;;;;;;2.20;1.40;;;;;;;;;;10372830;28;20041;-76
2022/05/29 20:33:24;;;;;;;2.65;1.40;;;;;;;;;;10364376;28;20030;-77
2022/05/29 20:38:28;;;;;;;2.67;1.88;;;;;;;;;;10348966;28;20128;-78
2022/05/29 20:43:30;;;;;;;;;;;;;;;;;;10341877;28;20120;-78
2022/05/29 20:48:34;;;;;;;4.35;1.88;;;;;;;;;;10372582;28;19933;-75
2022/05/29 20:53:38;;;;;;;3.80;1.70;;;;;;;;;;10356625;28;20050;-77
2022/05/29 20:58:42;;;;;;;4.22;1.85;;;;;;;;;;10363804;28;20041;-77
2022/05/29 21:03:46;;;;;;;1.83;1.13;;;;;;;;;;10344911;28;20161;-77
2022/05/29 21:08:50;;;;;;;1.85;1.38;;;;;;;;;;10347059;28;20061;-76
2022/05/29 21:13:53;;;;;;;3.00;1.65;;;;;;;;;;10362303;28;20084;-77
2022/05/29 21:18:56;;;;;;;3.33;1.92;;;;;;;;;;10365455;28;20422;-77
2022/05/29 21:24:02;;;;;;;2.08;1.60;;;;;;;;;;10367120;28;20053;-77
2022/05/29 21:29:04;;;;;;;3.28;1.77;;;;;;;;;;10358073;28;20080;-78
2022/05/29 21:34:09;;;;;;;4.03;1.77;;;;;;;;;;10343981;28;20459;-77
2022/05/29 21:39:14;;;;;;;4.55;1.70;;;;;;;;;;10346418;28;20042;-76
2022/05/29 21:44:18;;;;;;;3.97;2.83;;;;;;;;;;10346347;28;20467;-76
2022/05/29 21:49:20;;;;;;;4.25;2.40;;;;;;;;;;10360574;28;20068;-77
2022/05/29 21:54:24;;;;;;;5.55;2.03;;;;;;;;;;10355500;28;20049;-78
2022/05/29 21:59:27;;;;;;;3.33;2.25;;;;;;;;;;10360824;28;20170;-76
2022/05/29 22:04:31;;;;;;;2.70;1.63;;;;;;;;;;10346168;28;20484;-77
2022/05/29 22:09:35;;;;;;;4.60;2.38;;;;;;;;;;10353787;28;20042;-76
2022/05/29 22:14:38;;;;;;;4.30;2.20;;;;;;;;;;10357951;28;20069;-76
2022/05/29 22:19:41;;;;;;;5.20;2.22;;;;;;;;;;10359603;28;20041;-78
2022/05/29 22:24:45;;;;;;;3.53;2.05;;;;;;;;;;10370480;28;20067;-76
2022/05/29 22:29:49;;;;;;;8.32;2.25;;;;;;;;;;10356271;28;20050;-77
2022/05/29 22:34:55;;;;;;;5.63;2.30;;;;;;;;;;10356755;28;20037;-77
2022/05/29 22:40:00;;;;;;;4.78;2.08;;;;;;;;;;10347869;28;20049;-77
2022/05/29 22:45:22;;;;;;;;;;;;;;;;;;10356531;28;20057;-78
2022/05/29 22:50:26;;;;;;;3.20;2.03;;;;;;;;;;10357421;28;19969;-77
2022/05/29 22:55:29;;;;;;;;;;;;;;;;;;10346458;28;20516;-78
2022/05/29 23:00:33;;;;;;;2.03;1.15;;;;;;;;;;10340897;28;20029;-75
2022/05/29 23:05:36;;;;;;;4.10;2.38;;;;;;;;;;10360934;28;20066;-76
2022/05/29 23:10:40;;;;;;;2.63;1.13;;;;;;;;;;10362403;28;20119;-76
2022/05/29 23:15:44;;;;;;;4.00;2.50;;;;;;;;;;10368603;28;20042;-77
2022/05/29 23:20:50;;;;;;;4.20;2.20;;;;;;;;;;10353780;28;20047;-76
2022/05/29 23:25:54;;;;;;;3.17;2.15;;;;;;;;;;10365818;28;20137;-76
2022/05/29 23:30:59;;;;;;;1.95;1.35;;;;;;;;;;10350317;28;20034;-78
2022/05/29 23:36:03;;;;;;;0.55;0.55;;;;;;;;;;10366368;28;20050;-77
2022/05/29 23:46:38;;;;;;;2.35;1.38;;;;;;;;;;10351043;28;20426;-76
2022/05/29 23:51:41;;;;;;;2.33;1.30;;;;;;;;;;10348284;28;20034;-79
2022/05/29 23:56:43;;;;;;;3.53;2.10;;;;;;;;;;10364720;28;20053;-78
